Time;durP1;ratioP1;P1;durP2;ratioP2;P2;SDS_P1;SDS_P2;PMS_P1;PMS_P2;Temp;Humidity;BMP_temperature;BMP_pressure;BME280_temperature;BME280_humidity;BME280_pressure;Samples;Min_cycle;Max_cycle;Signal;HPM_P1;HPM_P2
2021/03/23 00:01:10;;;;;;;5.75;4.03;;;;;;;8.35;37.83;102192.84;5074493;28;20072;-72
2021/03/23 00:03:41;;;;;;;7.28;4.60;;;;;;;8.35;37.89;102196.44;5066150;28;20040;-72
2021/03/23 00:06:11;;;;;;;7.10;4.53;;;;;;;8.35;37.78;102191.00;5053694;28;20109;-72
2021/03/23 00:08:42;;;;;;;6.30;4.28;;;;;;;8.35;37.91;102191.00;5076062;28;20041;-72
2021/03/23 00:11:11;;;;;;;7.57;4.70;;;;;;;8.35;37.76;102187.38;5073904;28;20413;-72
2021/03/23 00:13:40;;;;;;;7.30;4.93;;;;;;;8.35;37.88;102184.66;5074112;28;20040;-72
2021/03/23 00:16:08;;;;;;;8.35;4.47;;;;;;;8.33;38.30;102190.19;5071235;28;20546;-72
2021/03/23 00:18:36;;;;;;;8.18;5.32;;;;;;;8.34;37.89;102197.41;5053881;28;20049;-72
2021/03/23 00:21:04;;;;;;;8.00;5.15;;;;;;;8.35;37.99;102196.44;5069935;28;20064;-72
2021/03/23 00:23:32;;;;;;;6.72;4.53;;;;;;;8.34;37.92;102205.59;5069443;28;20048;-72
2021/03/23 00:25:59;;;;;;;7.10;4.93;;;;;;;8.34;37.99;102193.78;5065251;28;20045;-72
2021/03/23 00:28:26;;;;;;;9.27;5.78;;;;;;;8.34;37.89;102200.13;5052545;28;20045;-72
2021/03/23 00:30:54;;;;;;;7.60;5.50;;;;;;;8.35;37.78;102190.09;5069806;28;20078;-73
2021/03/23 00:33:23;;;;;;;8.65;5.80;;;;;;;8.34;37.86;102201.97;5051955;28;21311;-74
2021/03/23 00:35:54;;;;;;;8.10;5.30;;;;;;;8.33;37.80;102192.91;5074737;28;20068;-73
2021/03/23 00:38:23;;;;;;;8.68;5.93;;;;;;;8.33;37.76;102195.63;5065715;28;20050;-73
2021/03/23 00:40:51;;;;;;;9.13;5.95;;;;;;;8.32;37.65;102191.16;5053579;28;20086;-73
2021/03/23 00:43:19;;;;;;;9.18;5.68;;;;;;;8.32;37.83;102195.72;5069427;28;20047;-73
2021/03/23 00:45:46;;;;;;;9.68;6.35;;;;;;;8.32;37.77;102195.72;5069113;28;20032;-73
2021/03/23 00:48:16;;;;;;;8.23;5.40;;;;;;;8.33;37.89;102186.56;5071570;28;20040;-73
2021/03/23 00:50:44;;;;;;;7.43;5.43;;;;;;;8.31;37.77;102180.34;5048867;28;20103;-73
2021/03/23 00:53:13;;;;;;;9.10;5.53;;;;;;;8.30;37.81;102182.19;5066903;28;20044;-73
2021/03/23 00:55:41;;;;;;;8.82;6.07;;;;;;;8.31;37.61;102183.97;5073891;28;20089;-74
2021/03/23 00:58:08;;;;;;;8.90;5.93;;;;;;;8.30;37.66;102181.31;5067360;28;20047;-73
2021/03/23 01:00:36;;;;;;;7.78;5.60;;;;;;;8.29;37.61;102185.88;5071766;28;20147;-73
2021/03/23 01:03:03;;;;;;;10.30;6.57;;;;;;;8.29;37.40;102182.28;5073333;28;20044;-73
2021/03/23 01:05:35;;;;;;;8.27;5.68;;;;;;;8.29;37.37;102190.47;5053368;28;20048;-73
2021/03/23 01:08:03;;;;;;;8.27;5.60;;;;;;;8.26;37.50;102180.59;5070927;28;20044;-73
2021/03/23 01:10:32;;;;;;;8.70;6.15;;;;;;;8.24;37.37;102180.69;5052328;28;20055;-73
2021/03/23 01:13:01;;;;;;;8.55;5.45;;;;;;;8.25;37.48;102193.34;5070833;28;20466;-73
2021/03/23 01:15:32;;;;;;;9.48;6.38;;;;;;;8.25;37.66;102195.19;5073969;28;20086;-73
2021/03/23 01:18:00;;;;;;;8.15;5.60;;;;;;;8.22;37.37;102189.94;5070278;28;20472;-73
2021/03/23 01:20:29;;;;;;;9.50;6.60;;;;;;;8.22;37.45;102187.19;5067515;28;20407;-73
2021/03/23 01:22:57;;;;;;;8.00;5.38;;;;;;;8.21;37.57;102190.88;5054032;28;20090;-73
2021/03/23 01:25:25;;;;;;;7.97;5.40;;;;;;;8.21;37.61;102188.16;5069265;28;20518;-73
2021/03/23 01:27:54;;;;;;;8.75;5.82;;;;;;;8.19;37.59;102192.81;5068831;28;20037;-73
2021/03/23 01:30:26;;;;;;;7.75;5.40;;;;;;;8.20;37.86;102186.41;5054462;28;20060;-73
2021/03/23 01:32:56;;;;;;;8.27;5.55;;;;;;;8.17;37.62;102192.00;5025941;28;20396;-73
2021/03/23 01:35:25;;;;;;;8.95;6.00;;;;;;;8.18;37.72;102183.75;5062465;28;20047;-73
2021/03/23 01:37:53;;;;;;;10.50;6.45;;;;;;;8.18;37.59;102182.88;5051583;28;20045;-73
2021/03/23 01:40:25;;;;;;;9.82;6.38;;;;;;;8.18;37.82;102177.41;5044140;28;20094;-73
2021/03/23 01:42:55;;;;;;;9.90;6.70;;;;;;;8.17;37.72;102184.72;5072717;28;20040;-73
2021/03/23 01:45:35;;;;;;;10.57;7.10;;;;;;;8.17;38.08;102175.66;5071360;28;20086;-73
2021/03/23 01:48:06;;;;;;;9.80;6.68;;;;;;;8.15;38.04;102186.63;5047389;28;20044;-73
2021/03/23 01:50:35;;;;;;;9.38;6.90;;;;;;;8.14;37.76;102182.19;5066861;28;20119;-73
2021/03/23 01:53:09;;;;;;;10.32;7.05;;;;;;;8.17;37.98;102186.56;5064812;28;20040;-73
2021/03/23 01:55:39;;;;;;;11.38;7.50;;;;;;;8.14;37.99;102181.28;5059418;28;20036;-73
2021/03/23 01:58:10;;;;;;;10.18;6.75;;;;;;;8.14;37.98;102186.75;5048370;28;20148;-73
2021/03/23 02:00:46;;;;;;;10.85;6.60;;;;;;;8.13;38.16;102185.88;5070408;28;20060;-73
2021/03/23 02:03:19;;;;;;;10.70;6.57;;;;;;;8.12;38.15;102180.50;5078083;28;20127;-73
2021/03/23 02:05:55;;;;;;;10.05;6.53;;;;;;;8.14;38.39;102187.63;5063062;28;20044;-73
2021/03/23 02:08:25;;;;;;;10.00;6.80;;;;;;;8.11;38.06;102186.91;5075815;28;20147;-73
2021/03/23 02:10:53;;;;;;;9.45;6.30;;;;;;;8.11;38.26;102182.34;5041894;28;20040;-73
2021/03/23 02:13:21;;;;;;;11.65;6.68;;;;;;;8.11;38.32;102193.22;5079685;28;20040;-73
2021/03/23 02:15:49;;;;;;;10.48;6.63;;;;;;;8.12;38.33;102185.94;5047050;28;20430;-73
2021/03/23 02:18:20;;;;;;;11.60;7.13;;;;;;;8.12;38.38;102192.28;5065386;28;20087;-73
2021/03/23 02:21:01;;;;;;;12.07;7.50;;;;;;;8.13;38.53;102193.16;5070236;28;20572;-73
2021/03/23 02:23:32;;;;;;;14.13;8.52;;;;;;;8.10;38.28;102185.13;5077908;28;20044;-72
2021/03/23 02:26:00;;;;;;;12.75;7.53;;;;;;;8.10;38.55;102193.31;5052792;28;20432;-72
2021/03/23 02:28:28;;;;;;;13.27;8.05;;;;;;;8.09;38.43;102191.53;5064274;28;20040;-73
2021/03/23 02:30:56;;;;;;;12.80;8.20;;;;;;;8.09;38.48;102186.97;5062124;28;20091;-73
2021/03/23 02:33:24;;;;;;;13.00;8.23;;;;;;;8.07;38.62;102183.44;5063595;28;20040;-72
2021/03/23 02:35:51;;;;;;;12.90;7.95;;;;;;;8.08;38.58;102187.94;5059038;28;20076;-72
2021/03/23 02:38:20;;;;;;;13.60;8.52;;;;;;;8.08;38.56;102185.22;5072208;28;20078;-72
2021/03/23 02:40:48;;;;;;;15.13;9.10;;;;;;;8.07;38.70;102190.75;5070967;28;20040;-72
2021/03/23 02:43:16;;;;;;;15.10;8.75;;;;;;;8.06;38.70;102183.56;5071571;28;20473;-72
2021/03/23 02:45:49;;;;;;;15.35;8.48;;;;;;;8.08;38.92;102187.94;5064576;28;20036;-74
2021/03/23 02:48:16;;;;;;;14.15;8.60;;;;;;;8.06;38.79;102173.53;5066297;28;20107;-72
2021/03/23 02:50:44;;;;;;;14.57;8.90;;;;;;;8.06;38.66;102176.28;5047461;28;20036;-72
2021/03/23 02:53:11;;;;;;;13.93;8.43;;;;;;;8.06;38.96;102179.00;5053857;28;20042;-72
2021/03/23 02:55:39;;;;;;;13.10;8.20;;;;;;;8.07;38.85;102177.13;5075522;28;20040;-72
2021/03/23 02:58:06;;;;;;;12.65;7.70;;;;;;;8.05;38.79;102173.63;5060281;28;20043;-72
2021/03/23 03:00:33;;;;;;;12.80;7.28;;;;;;;8.06;39.00;102172.66;5071660;28;20048;-72
2021/03/23 03:03:01;;;;;;;12.00;7.82;;;;;;;8.06;38.99;102173.53;5075308;28;20036;-72
2021/03/23 03:05:41;;;;;;;14.15;8.23;;;;;;;8.05;38.98;102174.50;5067588;28;20036;-72
2021/03/23 03:08:09;;;;;;;14.77;8.02;;;;;;;8.07;39.05;102179.84;5070335;28;20064;-72
2021/03/23 03:10:37;;;;;;;13.73;7.72;;;;;;;8.07;39.08;102180.72;5075106;28;20654;-72
2021/03/23 03:13:05;;;;;;;13.32;7.47;;;;;;;8.09;38.99;102173.34;5077834;28;20088;-72
2021/03/23 03:15:33;;;;;;;12.43;6.88;;;;;;;8.08;39.13;102170.72;5069830;28;20044;-73
2021/03/23 03:18:00;;;;;;;13.45;8.52;;;;;;;8.09;38.97;102169.75;5070156;28;20046;-72
2021/03/23 03:20:30;;;;;;;12.57;7.63;;;;;;;8.08;39.25;102166.13;5074548;28;20040;-72
2021/03/23 03:23:01;;;;;;;12.73;7.65;;;;;;;8.09;39.27;102184.25;5074635;28;20488;-72
2021/03/23 03:25:29;;;;;;;13.00;7.85;;;;;;;8.09;39.00;102175.19;5079207;28;20064;-73
2021/03/23 03:27:59;;;;;;;14.40;8.13;;;;;;;8.09;39.08;102173.34;5072272;28;20048;-72
2021/03/23 03:30:30;;;;;;;14.88;8.77;;;;;;;8.10;39.23;102174.22;5071391;28;20072;-73
2021/03/23 03:32:58;;;;;;;14.93;8.88;;;;;;;8.08;39.14;102171.59;5074486;28;20085;-73
2021/03/23 03:35:29;;;;;;;15.05;9.02;;;;;;;8.10;39.30;102175.13;5051641;28;20693;-73
2021/03/23 03:37:56;;;;;;;13.65;8.38;;;;;;;8.08;39.31;102166.13;5073519;28;20032;-73
2021/03/23 03:40:26;;;;;;;15.90;8.70;;;;;;;8.09;39.59;102156.13;5069216;28;20036;-73
2021/03/23 03:42:53;;;;;;;14.85;9.15;;;;;;;8.08;39.41;102154.34;5054907;28;20127;-73
2021/03/23 03:45:23;;;;;;;15.23;8.93;;;;;;;8.08;39.32;102151.63;5068538;28;20140;-73
2021/03/23 03:47:52;;;;;;;12.48;7.95;;;;;;;8.08;39.32;102155.25;5078417;28;20036;-73
2021/03/23 03:50:20;;;;;;;17.00;9.65;;;;;;;8.07;39.27;102158.03;5054554;28;20037;-73
2021/03/23 03:52:48;;;;;;;16.13;9.40;;;;;;;8.07;39.39;102148.03;5073498;28;20060;-73
2021/03/23 03:55:17;;;;;;;14.75;9.23;;;;;;;8.08;39.33;102152.50;5074933;28;20040;-73
2021/03/23 03:57:44;;;;;;;15.63;9.48;;;;;;;8.07;39.46;102153.47;5051524;28;20029;-73
2021/03/23 04:00:15;;;;;;;16.92;9.75;;;;;;;8.09;39.38;102153.41;5081105;28;20036;-73
2021/03/23 04:02:43;;;;;;;15.73;9.57;;;;;;;8.06;39.55;102151.75;5047418;28;20067;-73
2021/03/23 04:05:16;;;;;;;15.48;9.43;;;;;;;8.09;39.61;102140.66;5074901;28;20037;-73
2021/03/23 04:07:44;;;;;;;14.82;8.98;;;;;;;8.07;39.48;102144.41;5071152;28;20048;-73
2021/03/23 04:10:12;;;;;;;16.17;9.45;;;;;;;8.07;39.47;102149.88;5059861;28;20495;-73
2021/03/23 04:12:39;;;;;;;15.23;9.50;;;;;;;8.07;39.49;102141.69;5052746;28;20036;-73
2021/03/23 04:15:07;;;;;;;15.35;9.32;;;;;;;8.08;39.42;102149.78;5073643;28;20067;-73
2021/03/23 04:17:35;;;;;;;16.77;10.10;;;;;;;8.07;39.12;102141.69;5048569;28;20044;-73
2021/03/23 04:20:03;;;;;;;15.93;8.63;;;;;;;8.07;39.20;102145.28;5062072;28;20045;-74
2021/03/23 04:22:32;;;;;;;16.20;9.27;;;;;;;8.07;39.17;102145.28;5054673;28;20636;-73
2021/03/23 04:24:59;;;;;;;16.65;9.80;;;;;;;8.05;39.34;102143.66;5073709;28;20037;-72
2021/03/23 04:27:27;;;;;;;17.80;10.75;;;;;;;8.05;39.35;102146.38;5068149;28;20040;-72
2021/03/23 04:29:54;;;;;;;15.65;9.55;;;;;;;8.04;38.88;102153.66;5066222;28;20037;-73
2021/03/23 04:32:21;;;;;;;15.18;9.40;;;;;;;8.02;39.42;102144.69;5073116;28;20036;-73
2021/03/23 04:34:48;;;;;;;18.27;11.13;;;;;;;8.01;39.22;102151.09;5051962;28;20044;-73
2021/03/23 04:37:16;;;;;;;17.15;9.93;;;;;;;8.01;39.21;102148.38;5070369;28;20098;-72
2021/03/23 04:39:44;;;;;;;16.45;9.85;;;;;;;8.00;39.23;102146.59;5067639;28;20048;-72
2021/03/23 04:42:11;;;;;;;16.02;9.50;;;;;;;7.99;39.36;102153.00;5074228;28;20041;-72
2021/03/23 04:44:39;;;;;;;17.20;9.48;;;;;;;7.99;39.39;102154.84;5076847;28;20625;-73
2021/03/23 04:47:07;;;;;;;15.30;9.82;;;;;;;7.98;39.25;102154.00;5056187;28;20033;-73
2021/03/23 04:49:34;;;;;;;15.00;8.90;;;;;;;7.97;39.25;102163.16;5071671;28;20051;-73
2021/03/23 04:52:03;;;;;;;17.50;10.70;;;;;;;7.96;39.48;102152.31;5052883;28;20040;-73
2021/03/23 04:54:31;;;;;;;15.60;8.93;;;;;;;7.95;39.28;102156.00;5066354;28;20049;-73
2021/03/23 04:56:59;;;;;;;15.40;9.73;;;;;;;7.95;39.27;102154.16;5056541;28;20139;-72
2021/03/23 04:59:27;;;;;;;18.50;10.57;;;;;;;7.93;39.20;102164.25;5073217;28;20154;-73
2021/03/23 05:01:54;;;;;;;15.82;9.77;;;;;;;7.93;39.30;102157.94;5073606;28;20479;-73
2021/03/23 05:04:22;;;;;;;18.52;9.80;;;;;;;7.92;39.55;102156.16;5029919;28;20147;-73
2021/03/23 05:06:51;;;;;;;16.35;9.32;;;;;;;7.91;39.23;102148.94;5076447;28;20040;-73
2021/03/23 05:09:18;;;;;;;18.85;11.57;;;;;;;7.91;39.12;102154.41;5069713;28;20075;-73
2021/03/23 05:11:46;;;;;;;18.65;10.75;;;;;;;7.90;39.03;102160.84;5034483;28;20044;-73
2021/03/23 05:14:14;;;;;;;19.42;10.93;;;;;;;7.90;38.94;102155.38;5053551;28;20044;-73
2021/03/23 05:16:42;;;;;;;19.48;10.80;;;;;;;7.86;38.96;102158.28;5060093;28;20062;-73
2021/03/23 05:19:09;;;;;;;18.00;10.27;;;;;;;7.86;39.17;102158.28;5051909;28;20052;-73
2021/03/23 05:21:36;;;;;;;15.43;8.93;;;;;;;7.85;39.13;102158.34;5056679;28;20040;-73
2021/03/23 05:24:04;;;;;;;14.68;8.82;;;;;;;7.84;39.17;102170.22;5053887;28;20051;-73
2021/03/23 05:26:31;;;;;;;16.80;9.27;;;;;;;7.84;39.23;102172.94;5054055;28;20036;-73
2021/03/23 05:28:59;;;;;;;14.23;8.68;;;;;;;7.83;39.41;102166.59;5051413;28;20062;-72
2021/03/23 05:31:27;;;;;;;15.00;9.15;;;;;;;7.85;39.43;102169.25;5034871;28;20041;-72
2021/03/23 05:33:55;;;;;;;15.90;9.07;;;;;;;7.84;39.42;102171.09;5045661;28;20395;-72
2021/03/23 05:36:23;;;;;;;15.88;9.77;;;;;;;7.85;39.36;102169.25;5074075;28;20075;-73
2021/03/23 05:38:50;;;;;;;18.30;9.63;;;;;;;7.84;39.51;102165.63;5071947;28;20083;-72
2021/03/23 05:41:26;;;;;;;15.75;9.40;;;;;;;7.88;39.71;102171.81;5053371;28;20040;-72
2021/03/23 05:53:02;;;;;;;14.73;7.80;;;;;;;7.80;39.81;102176.78;5059485;28;20047;-73
2021/03/23 05:55:47;;;;;;;17.88;9.43;;;;;;;7.83;39.86;102174.78;5068702;28;20048;-73
2021/03/23 05:58:21;;;;;;;15.02;9.10;;;;;;;7.84;39.86;102178.38;5041988;28;20045;-74
2021/03/23 06:01:12;;;;;;;15.73;9.20;;;;;;;7.87;39.78;102181.84;5046704;28;20526;-73
2021/03/23 06:07:55;;;;;;;18.50;8.80;;;;;;;7.85;39.75;102178.31;4978417;28;20054;-74
2021/03/23 06:11:01;;;;;;;17.90;9.80;;;;;;;7.90;40.04;102175.31;4989279;28;20056;-74
2021/03/23 06:14:47;;;;;;;17.08;9.02;;;;;;;7.88;39.99;102169.97;4972742;28;20613;-74
2021/03/23 06:21:12;;;;;;;16.30;9.07;;;;;;;7.90;39.91;102171.75;4990044;28;20187;-73
2021/03/23 06:24:05;;;;;;;13.45;8.32;;;;;;;7.90;39.90;102161.69;4986037;28;20063;-73
2021/03/23 06:27:02;;;;;;;15.68;9.40;;;;;;;7.91;39.83;102159.84;4984521;28;20053;-73
2021/03/23 06:33:25;;;;;;;17.73;8.50;;;;;;;7.91;39.85;102182.53;4980020;28;20132;-73
2021/03/23 06:35:56;;;;;;;15.60;8.77;;;;;;;7.94;39.83;102181.50;4990813;28;20330;-69
2021/03/23 06:38:35;;;;;;;17.95;9.60;;;;;;;7.94;39.80;102176.91;4986490;28;20944;-70
2021/03/23 06:41:27;;;;;;;15.75;8.85;;;;;;;7.95;39.98;102180.53;5004416;28;20705;-70
2021/03/23 06:43:58;;;;;;;18.58;8.95;;;;;;;7.94;40.10;102176.91;5029119;28;20052;-69
2021/03/23 06:46:54;;;;;;;18.65;9.88;;;;;;;8.01;40.18;102182.91;5072105;28;20083;-74
2021/03/23 06:49:52;;;;;;;17.70;10.50;;;;;;;8.01;40.02;102193.81;5062930;28;20049;-72
2021/03/23 06:52:23;;;;;;;16.60;9.57;;;;;;;8.05;40.08;102195.41;5060150;28;20087;-72
2021/03/23 06:55:22;;;;;;;17.27;9.63;;;;;;;8.06;40.05;102200.78;5050933;28;20051;-72
2021/03/23 06:57:50;;;;;;;19.58;9.90;;;;;;;8.08;39.84;102207.03;5068908;28;20676;-73
2021/03/23 07:00:25;;;;;;;18.75;10.32;;;;;;;8.14;39.97;102219.44;5058510;28;20126;-72
2021/03/23 07:03:09;;;;;;;16.75;10.52;;;;;;;8.14;40.13;102222.19;5052216;28;20554;-71
2021/03/23 07:05:43;;;;;;;16.90;10.35;;;;;;;8.16;39.70;102215.66;5055121;28;20480;-72
2021/03/23 07:08:24;;;;;;;16.60;10.15;;;;;;;8.17;39.69;102220.16;5059136;28;20056;-70
2021/03/23 07:11:07;;;;;;;17.30;9.75;;;;;;;8.19;39.63;102218.22;5074220;28;20118;-70
2021/03/23 07:13:39;;;;;;;17.85;10.23;;;;;;;8.18;39.49;102211.00;5076993;28;20044;-72
2021/03/23 07:16:26;;;;;;;17.13;9.80;;;;;;;8.19;39.57;102211.88;5054053;28;20048;-71
2021/03/23 07:19:08;;;;;;;19.55;11.00;;;;;;;8.19;39.40;102209.16;5052045;28;20057;-72
2021/03/23 07:21:42;;;;;;;17.63;10.57;;;;;;;8.20;39.48;102219.09;5074746;28;20407;-71
2021/03/23 07:24:11;;;;;;;18.08;10.38;;;;;;;8.18;39.33;102211.00;5075850;28;20032;-71
2021/03/23 07:26:41;;;;;;;17.90;10.30;;;;;;;8.20;39.33;102210.94;5075253;28;20072;-70
2021/03/23 07:29:24;;;;;;;18.38;10.10;;;;;;;8.19;39.33;102207.31;5072929;28;20099;-71
2021/03/23 07:32:05;;;;;;;16.92;10.00;;;;;;;8.19;39.35;102204.59;5065643;28;20041;-71
2021/03/23 07:34:48;;;;;;;15.55;9.13;;;;;;;8.20;39.17;102211.81;5078136;28;20036;-71
2021/03/23 07:37:19;;;;;;;15.52;9.50;;;;;;;8.17;39.22;102206.53;5062982;28;20037;-71
2021/03/23 07:39:53;;;;;;;17.65;9.95;;;;;;;8.20;39.28;102213.66;5063049;28;20029;-71
2021/03/23 07:42:26;;;;;;;17.58;9.90;;;;;;;8.20;39.20;102208.19;5071024;28;20041;-71
2021/03/23 07:45:00;;;;;;;18.90;10.40;;;;;;;8.19;39.03;102209.16;5067892;28;20088;-71
2021/03/23 07:47:34;;;;;;;17.20;10.55;;;;;;;8.20;39.03;102203.63;5075470;28;20067;-73
2021/03/23 07:50:12;;;;;;;16.95;10.75;;;;;;;8.20;39.11;102205.47;5067813;28;20043;-72
2021/03/23 07:52:46;;;;;;;18.55;10.38;;;;;;;8.18;39.11;102205.56;5057553;28;20439;-72
2021/03/23 07:55:17;;;;;;;19.00;11.38;;;;;;;8.19;39.14;102210.06;5074746;28;20490;-73
2021/03/23 07:57:56;;;;;;;18.98;10.27;;;;;;;8.21;39.25;102209.97;5043281;28;20044;-73
2021/03/23 08:00:40;;;;;;;15.18;9.65;;;;;;;8.22;39.12;102217.19;5069226;28;20051;-72
2021/03/23 08:03:45;;;;;;;18.85;9.65;;;;;;;8.19;38.97;102209.16;5036608;28;20056;-71
2021/03/23 08:06:23;;;;;;;15.52;8.68;;;;;;;8.20;39.16;102214.53;5069336;28;20041;-72
2021/03/23 08:09:17;;;;;;;17.95;9.82;;;;;;;8.23;39.22;102222.53;5064544;28;20047;-71
2021/03/23 08:11:54;;;;;;;18.85;10.15;;;;;;;8.25;39.11;102225.19;5078696;28;20051;-71
2021/03/23 08:14:37;;;;;;;19.42;10.27;;;;;;;8.27;39.27;102223.25;5048569;28;20361;-71
2021/03/23 08:17:27;;;;;;;17.80;9.82;;;;;;;8.28;39.07;102227.75;5068734;28;20048;-72
2021/03/23 08:20:19;;;;;;;16.55;9.20;;;;;;;8.31;39.11;102226.72;5076079;28;20045;-72
2021/03/23 08:23:02;;;;;;;17.02;9.65;;;;;;;8.32;39.08;102231.16;5072884;28;20115;-72
2021/03/23 08:25:41;;;;;;;;;;;;;;;8.06;39.56;102227.16;5070069;28;20122;-73
2021/03/23 08:28:22;;;;;;;14.25;7.90;;;;;;;8.33;39.19;102236.53;5069067;28;19954;-73
2021/03/23 08:31:02;;;;;;;16.60;8.95;;;;;;;8.37;39.11;102238.16;5060160;28;20068;-74
2021/03/23 08:33:51;;;;;;;16.25;8.82;;;;;;;8.40;38.87;102239.81;5054467;28;20067;-73
2021/03/23 08:36:33;;;;;;;16.80;10.10;;;;;;;8.42;39.14;102241.50;5060590;28;20045;-73
2021/03/23 08:39:15;;;;;;;15.73;8.88;;;;;;;8.45;39.09;102249.53;5061943;28;20037;-74
2021/03/23 08:41:53;;;;;;;15.45;8.63;;;;;;;8.48;38.86;102252.06;5068896;28;20558;-75
2021/03/23 08:44:30;;;;;;;16.80;9.40;;;;;;;8.51;39.15;102245.59;5059421;28;20036;-75
2021/03/23 08:47:01;;;;;;;16.85;8.93;;;;;;;8.52;39.03;102241.91;5037832;28;20045;-74
2021/03/23 08:49:30;;;;;;;15.80;9.60;;;;;;;8.51;39.22;102242.84;5071680;28;20048;-74
2021/03/23 08:51:57;;;;;;;17.67;9.77;;;;;;;8.55;39.14;102248.06;5072252;28;20045;-73
2021/03/23 08:54:48;;;;;;;15.05;9.27;;;;;;;8.57;39.04;102239.78;5055439;28;20492;-73
2021/03/23 08:57:16;;;;;;;18.92;10.13;;;;;;;8.59;38.78;102244.19;5059611;28;20549;-73
2021/03/23 08:59:55;;;;;;;17.73;9.93;;;;;;;8.66;38.93;102232.94;5065809;28;20443;-74
2021/03/23 09:02:48;;;;;;;15.52;8.80;;;;;;;8.63;38.99;102239.47;5069312;28;20051;-74
2021/03/23 09:06:00;;;;;;;16.95;9.32;;;;;;;8.61;38.98;102236.81;5054965;28;20044;-73
2021/03/23 09:08:48;;;;;;;15.25;9.32;;;;;;;8.68;39.03;102236.47;4991282;28;20103;-72
2021/03/23 09:11:20;;;;;;;16.25;8.52;;;;;;;8.73;39.23;102235.22;5073631;28;20063;-72
2021/03/23 09:14:16;;;;;;;14.23;8.73;;;;;;;8.74;39.13;102247.00;5065355;28;20033;-72
2021/03/23 09:17:16;;;;;;;15.50;9.40;;;;;;;8.80;38.94;102249.41;5070196;28;20045;-72
2021/03/23 09:19:53;;;;;;;14.18;8.55;;;;;;;8.83;39.19;102239.19;5045897;28;20056;-72
2021/03/23 09:22:36;;;;;;;15.75;9.20;;;;;;;8.89;38.96;102241.56;5062927;28;20040;-73
2021/03/23 09:25:49;;;;;;;14.98;8.80;;;;;;;8.87;38.92;102242.63;5053457;28;20048;-73
2021/03/23 09:28:50;;;;;;;16.02;9.50;;;;;;;8.94;38.83;102236.72;5051599;28;20063;-72
2021/03/23 09:31:37;;;;;;;14.30;8.75;;;;;;;8.99;39.15;102228.25;5075853;28;20037;-72
2021/03/23 09:34:43;;;;;;;15.27;9.52;;;;;;;9.03;38.70;102228.97;5053146;28;20114;-72
2021/03/23 09:37:30;;;;;;;14.15;8.27;;;;;;;9.08;38.81;102229.59;5067759;28;20071;-72
2021/03/23 09:39:59;;;;;;;17.35;8.73;;;;;;;9.14;39.12;102229.22;5063040;28;20066;-71
2021/03/23 09:42:38;;;;;;;16.15;9.25;;;;;;;9.20;38.99;102221.56;5030472;28;20083;-72
2021/03/23 09:45:28;;;;;;;15.60;8.57;;;;;;;9.26;38.85;102225.78;5071275;28;20044;-72
2021/03/23 09:48:02;;;;;;;15.55;8.85;;;;;;;9.34;38.94;102223.47;5071548;28;20043;-72
2021/03/23 09:50:42;;;;;;;15.38;8.70;;;;;;;9.42;38.69;102220.28;5073993;28;20044;-72
2021/03/23 09:53:21;;;;;;;14.65;8.93;;;;;;;9.48;38.59;102228.09;5069913;28;20068;-71
2021/03/23 09:55:50;;;;;;;16.08;8.95;;;;;;;9.51;38.93;102227.94;5074691;28;20040;-71
2021/03/23 09:58:23;;;;;;;14.30;9.02;;;;;;;9.59;38.48;102220.16;5034983;28;20047;-71
2021/03/23 10:00:53;;;;;;;13.35;8.13;;;;;;;9.62;38.77;102220.84;5050334;28;20044;-72
2021/03/23 10:03:29;;;;;;;14.60;8.68;;;;;;;9.69;38.62;102207.72;5068499;28;20051;-73
2021/03/23 10:06:02;;;;;;;12.48;8.05;;;;;;;9.76;38.83;102211.84;5071065;28;20044;-73
2021/03/23 10:08:34;;;;;;;12.43;8.25;;;;;;;9.78;38.51;102207.16;5073028;28;20072;-72
2021/03/23 10:11:14;;;;;;;12.45;7.30;;;;;;;9.85;38.82;102213.13;5068452;28;20127;-71
2021/03/23 10:13:48;;;;;;;13.15;7.88;;;;;;;9.92;38.54;102198.97;5053731;28;20106;-73
2021/03/23 10:16:25;;;;;;;12.07;8.20;;;;;;;10.00;38.23;102204.84;5066886;28;20051;-73
2021/03/23 10:18:54;;;;;;;12.43;7.75;;;;;;;10.03;38.88;102207.41;5074409;28;20094;-72
2021/03/23 10:21:28;;;;;;;12.77;7.43;;;;;;;10.13;38.40;102205.81;5069407;28;20067;-72
2021/03/23 10:23:57;;;;;;;12.25;8.50;;;;;;;10.17;38.50;102213.84;5070321;28;20041;-73
2021/03/23 10:26:34;;;;;;;11.35;7.47;;;;;;;10.26;38.51;102210.53;5053059;28;20047;-73
2021/03/23 10:29:15;;;;;;;12.65;7.75;;;;;;;10.33;37.98;102209.16;5065617;28;20115;-72
2021/03/23 10:31:51;;;;;;;13.07;8.73;;;;;;;10.37;37.71;102202.53;5068495;28;20041;-73
2021/03/23 10:34:22;;;;;;;12.63;8.10;;;;;;;10.44;38.20;102198.41;5070367;28;20063;-71
2021/03/23 10:36:53;;;;;;;13.65;8.38;;;;;;;10.48;37.90;102189.00;5052790;28;20037;-73
2021/03/23 10:39:29;;;;;;;13.13;7.95;;;;;;;10.57;37.76;102188.41;5054491;28;20043;-72
2021/03/23 10:41:57;;;;;;;15.57;8.52;;;;;;;10.60;38.12;102182.75;5065089;28;20042;-72
2021/03/23 10:44:29;;;;;;;12.95;8.35;;;;;;;10.68;37.71;102182.25;5056193;28;20395;-72
2021/03/23 10:46:59;;;;;;;14.97;8.33;;;;;;;10.70;38.18;102172.94;5070302;28;20467;-73
2021/03/23 10:49:31;;;;;;;16.33;8.07;;;;;;;10.79;37.83;102175.06;5070481;28;20048;-73
2021/03/23 10:52:01;;;;;;;13.48;8.43;;;;;;;10.87;37.94;102171.84;5054164;28;20044;-71
2021/03/23 10:54:32;;;;;;;14.63;8.07;;;;;;;10.96;38.12;102167.59;5076766;28;20041;-72
2021/03/23 10:57:20;;;;;;;13.95;7.35;;;;;;;11.04;37.94;102163.38;5069505;28;20514;-72
2021/03/23 10:59:48;;;;;;;13.05;7.88;;;;;;;11.12;38.40;102162.84;5068596;28;20039;-72
2021/03/23 11:02:23;;;;;;;12.70;8.18;;;;;;;11.24;37.42;102160.16;5073297;28;20035;-72
2021/03/23 11:05:10;;;;;;;11.18;7.25;;;;;;;11.34;37.20;102163.16;5069737;28;20043;-72
2021/03/23 11:08:02;;;;;;;14.38;8.35;;;;;;;11.43;37.27;102161.66;5070464;28;20061;-72
2021/03/23 11:10:32;;;;;;;11.75;7.65;;;;;;;11.50;37.42;102152.00;5070832;28;20075;-72
2021/03/23 11:13:01;;;;;;;15.70;9.05;;;;;;;11.60;37.55;102153.13;5070303;28;20120;-72
2021/03/23 11:15:35;;;;;;;14.52;8.50;;;;;;;11.69;37.45;102157.94;5058664;28;20530;-72
2021/03/23 11:18:05;;;;;;;14.93;9.25;;;;;;;11.80;37.16;102157.19;5075605;28;20036;-72
2021/03/23 11:20:36;;;;;;;13.43;8.55;;;;;;;11.89;37.08;102165.63;5069828;28;20053;-73
2021/03/23 11:23:20;;;;;;;13.77;8.57;;;;;;;11.98;36.12;102153.16;5066031;28;20442;-73
2021/03/23 11:25:48;;;;;;;15.65;9.35;;;;;;;12.02;36.75;102155.56;5056813;28;20403;-74
2021/03/23 11:28:17;;;;;;;13.40;7.93;;;;;;;12.13;36.50;102151.19;5074559;28;20032;-73
2021/03/23 11:30:44;;;;;;;11.15;7.80;;;;;;;12.18;36.79;102149.88;5077251;28;20044;-69
2021/03/23 11:33:13;;;;;;;11.07;7.35;;;;;;;12.23;36.39;102142.19;5081422;28;20039;-69
2021/03/23 11:35:46;;;;;;;11.98;7.13;;;;;;;12.31;36.83;102131.50;5069638;28;20063;-69
2021/03/23 11:38:14;;;;;;;11.15;7.63;;;;;;;12.36;37.05;102136.66;5074633;28;20434;-69
2021/03/23 11:40:43;;;;;;;14.57;8.48;;;;;;;12.48;36.52;102134.88;5075090;28;20475;-69
2021/03/23 11:43:17;;;;;;;12.40;7.28;;;;;;;12.59;36.01;102132.22;5074984;28;20097;-69
2021/03/23 11:45:47;;;;;;;12.05;7.50;;;;;;;12.66;36.34;102134.38;5067716;28;20036;-69
2021/03/23 11:48:18;;;;;;;11.77;6.85;;;;;;;12.76;35.87;102129.06;5058862;28;20047;-69
2021/03/23 11:50:51;;;;;;;13.70;7.87;;;;;;;12.85;35.94;102130.22;5073615;28;20148;-72
2021/03/23 11:53:19;;;;;;;12.65;8.45;;;;;;;12.92;36.07;102121.47;5038400;28;20028;-73
2021/03/23 11:55:46;;;;;;;14.50;9.25;;;;;;;13.03;35.98;102124.25;5052508;28;20555;-72
2021/03/23 11:58:17;;;;;;;12.32;7.82;;;;;;;13.11;35.77;102121.78;5067252;28;20045;-72
2021/03/23 12:00:45;;;;;;;13.45;9.40;;;;;;;13.16;35.47;102122.34;5075362;28;20052;-72
2021/03/23 12:03:14;;;;;;;14.55;9.18;;;;;;;13.23;35.37;102119.09;5068567;28;20499;-72
2021/03/23 12:05:42;;;;;;;15.38;8.75;;;;;;;13.27;34.94;102115.09;5070828;28;20048;-73
2021/03/23 12:08:24;;;;;;;14.85;9.05;;;;;;;13.30;34.19;102114.88;5080799;28;20052;-73
2021/03/23 12:10:58;;;;;;;13.50;9.05;;;;;;;13.31;34.57;102120.25;5065408;28;20128;-70
2021/03/23 12:13:33;;;;;;;12.95;9.77;;;;;;;13.33;34.03;102120.16;5074240;28;20053;-71
2021/03/23 12:16:03;;;;;;;12.40;8.52;;;;;;;13.32;34.34;102113.75;5077231;28;20043;-72